El Campo, Texas
Current Conditions -  °F | °C
As of 4:55 AM on Friday 19 Dec 2014 (Local Time) from KARM Reporting Station
Overcast Overcast  
Wind Chill: 59°   Ceiling: 1100
Heat Index: 59°   Visibility: 10mi
Dew Point: 58°   Wind: 9mph
Humidity: 97%   Direction: 40°NE
Pressure: 29.97"   Gusts: NA
Location:  29.22°N, 96.29°W
Report Text: KARM 191055Z AUTO 04008KT 10SM OVC011 15/15 A2997 RMK AO2 LTG DSNT SE W AND NW T01510146
Loading
Personal Weather Stations






























Interactive Weather Map New forecast layout! Learn more

10-Day Weather Forecast

Advertisements
Track Severe Weather on mobile